sensor_id;sensor_type;location;lat;lon;timestamp;P1;durP1;ratioP1;P2;durP2;ratioP2
773;SDS011;370;48.810;9.150;2023-05-23T00:00:01;33.03;;;9.63;;
773;SDS011;370;48.810;9.150;2023-05-23T00:02:31;31.10;;;10.97;;
773;SDS011;370;48.810;9.150;2023-05-23T00:04:58;39.87;;;12.17;;
773;SDS011;370;48.810;9.150;2023-05-23T00:07:27;31.47;;;10.50;;
773;SDS011;370;48.810;9.150;2023-05-23T00:09:56;35.03;;;12.43;;
773;SDS011;370;48.810;9.150;2023-05-23T00:12:23;34.70;;;12.70;;
773;SDS011;370;48.810;9.150;2023-05-23T00:14:49;37.47;;;13.03;;
773;SDS011;370;48.810;9.150;2023-05-23T00:17:17;38.97;;;13.30;;
773;SDS011;370;48.810;9.150;2023-05-23T00:19:47;37.23;;;12.87;;
773;SDS011;370;48.810;9.150;2023-05-23T00:22:13;36.40;;;13.80;;
773;SDS011;370;48.810;9.150;2023-05-23T00:24:40;35.63;;;12.47;;
773;SDS011;370;48.810;9.150;2023-05-23T00:27:08;26.33;;;11.53;;
773;SDS011;370;48.810;9.150;2023-05-23T00:29:35;33.47;;;12.13;;
773;SDS011;370;48.810;9.150;2023-05-23T00:32:02;41.80;;;13.43;;
773;SDS011;370;48.810;9.150;2023-05-23T00:34:28;37.53;;;13.47;;
773;SDS011;370;48.810;9.150;2023-05-23T00:36:56;37.87;;;13.10;;
773;SDS011;370;48.810;9.150;2023-05-23T00:39:23;30.87;;;12.03;;
773;SDS011;370;48.810;9.150;2023-05-23T00:41:50;42.37;;;13.57;;
773;SDS011;370;48.810;9.150;2023-05-23T00:44:17;45.60;;;14.53;;
773;SDS011;370;48.810;9.150;2023-05-23T00:46:45;43.83;;;13.57;;
773;SDS011;370;48.810;9.150;2023-05-23T00:49:15;45.00;;;14.40;;
773;SDS011;370;48.810;9.150;2023-05-23T00:51:44;46.20;;;13.17;;
773;SDS011;370;48.810;9.150;2023-05-23T00:54:12;43.13;;;13.40;;
773;SDS011;370;48.810;9.150;2023-05-23T00:56:40;35.53;;;13.33;;
773;SDS011;370;48.810;9.150;2023-05-23T00:59:07;39.63;;;14.85;;
773;SDS011;370;48.810;9.150;2023-05-23T01:01:34;32.97;;;13.67;;
773;SDS011;370;48.810;9.150;2023-05-23T01:04:01;46.87;;;13.87;;
773;SDS011;370;48.810;9.150;2023-05-23T01:06:29;41.33;;;14.77;;
773;SDS011;370;48.810;9.150;2023-05-23T01:08:57;51.57;;;14.10;;
773;SDS011;370;48.810;9.150;2023-05-23T01:11:29;34.87;;;12.70;;
773;SDS011;370;48.810;9.150;2023-05-23T01:14:04;33.63;;;14.77;;
773;SDS011;370;48.810;9.150;2023-05-23T01:16:37;35.67;;;13.77;;
773;SDS011;370;48.810;9.150;2023-05-23T01:19:16;52.33;;;14.70;;
773;SDS011;370;48.810;9.150;2023-05-23T01:22:10;45.27;;;16.07;;
773;SDS011;370;48.810;9.150;2023-05-23T01:24:46;45.67;;;15.57;;
773;SDS011;370;48.810;9.150;2023-05-23T01:27:23;63.50;;;16.47;;
773;SDS011;370;48.810;9.150;2023-05-23T01:30:07;42.47;;;16.20;;
773;SDS011;370;48.810;9.150;2023-05-23T01:32:36;51.40;;;16.70;;
773;SDS011;370;48.810;9.150;2023-05-23T01:35:05;41.97;;;16.10;;
773;SDS011;370;48.810;9.150;2023-05-23T01:37:33;48.70;;;16.33;;
773;SDS011;370;48.810;9.150;2023-05-23T01:39:59;51.30;;;17.40;;
773;SDS011;370;48.810;9.150;2023-05-23T01:42:26;46.20;;;15.70;;
773;SDS011;370;48.810;9.150;2023-05-23T01:44:55;54.50;;;17.03;;
773;SDS011;370;48.810;9.150;2023-05-23T01:47:23;46.13;;;16.77;;
773;SDS011;370;48.810;9.150;2023-05-23T01:49:50;48.63;;;18.87;;
773;SDS011;370;48.810;9.150;2023-05-23T01:52:18;50.00;;;17.00;;
773;SDS011;370;48.810;9.150;2023-05-23T01:54:46;55.07;;;18.27;;
773;SDS011;370;48.810;9.150;2023-05-23T01:57:13;50.77;;;17.60;;
773;SDS011;370;48.810;9.150;2023-05-23T01:59:40;69.67;;;19.33;;
773;SDS011;370;48.810;9.150;2023-05-23T02:02:08;47.13;;;17.73;;
773;SDS011;370;48.810;9.150;2023-05-23T02:04:36;60.53;;;17.23;;
773;SDS011;370;48.810;9.150;2023-05-23T02:07:02;58.77;;;18.90;;
773;SDS011;370;48.810;9.150;2023-05-23T02:09:29;49.73;;;17.97;;
773;SDS011;370;48.810;9.150;2023-05-23T02:11:56;52.73;;;20.00;;
773;SDS011;370;48.810;9.150;2023-05-23T02:14:23;53.33;;;19.20;;
773;SDS011;370;48.810;9.150;2023-05-23T02:16:50;93.03;;;19.53;;
773;SDS011;370;48.810;9.150;2023-05-23T02:19:19;57.60;;;20.03;;
773;SDS011;370;48.810;9.150;2023-05-23T02:21:45;66.77;;;18.17;;
773;SDS011;370;48.810;9.150;2023-05-23T02:24:12;73.00;;;20.90;;
773;SDS011;370;48.810;9.150;2023-05-23T02:26:39;58.43;;;18.40;;
773;SDS011;370;48.810;9.150;2023-05-23T02:29:05;66.33;;;22.50;;
773;SDS011;370;48.810;9.150;2023-05-23T02:31:33;49.03;;;16.90;;
773;SDS011;370;48.810;9.150;2023-05-23T02:33:59;72.67;;;20.27;;
773;SDS011;370;48.810;9.150;2023-05-23T02:36:27;70.43;;;21.70;;
773;SDS011;370;48.810;9.150;2023-05-23T02:38:57;67.20;;;20.90;;
773;SDS011;370;48.810;9.150;2023-05-23T02:41:23;61.87;;;19.60;;
773;SDS011;370;48.810;9.150;2023-05-23T02:43:50;56.27;;;20.37;;
773;SDS011;370;48.810;9.150;2023-05-23T02:46:17;62.77;;;20.30;;
773;SDS011;370;48.810;9.150;2023-05-23T02:48:44;68.73;;;21.10;;
773;SDS011;370;48.810;9.150;2023-05-23T02:51:11;56.97;;;21.20;;
773;SDS011;370;48.810;9.150;2023-05-23T02:53:39;60.30;;;19.93;;
773;SDS011;370;48.810;9.150;2023-05-23T02:56:06;56.77;;;19.87;;
773;SDS011;370;48.810;9.150;2023-05-23T02:58:33;57.47;;;21.20;;
773;SDS011;370;48.810;9.150;2023-05-23T03:01:00;68.63;;;22.10;;
773;SDS011;370;48.810;9.150;2023-05-23T03:03:27;64.83;;;20.33;;
773;SDS011;370;48.810;9.150;2023-05-23T03:05:55;59.80;;;19.80;;
773;SDS011;370;48.810;9.150;2023-05-23T03:08:22;55.87;;;18.10;;
773;SDS011;370;48.810;9.150;2023-05-23T03:10:50;49.43;;;19.13;;
773;SDS011;370;48.810;9.150;2023-05-23T03:13:17;56.03;;;20.13;;
773;SDS011;370;48.810;9.150;2023-05-23T03:15:44;56.77;;;19.97;;
773;SDS011;370;48.810;9.150;2023-05-23T03:18:11;67.10;;;20.33;;
773;SDS011;370;48.810;9.150;2023-05-23T03:20:37;63.67;;;21.23;;
773;SDS011;370;48.810;9.150;2023-05-23T03:23:04;47.83;;;18.10;;
773;SDS011;370;48.810;9.150;2023-05-23T03:25:31;57.77;;;18.23;;
773;SDS011;370;48.810;9.150;2023-05-23T03:27:59;52.10;;;17.00;;
773;SDS011;370;48.810;9.150;2023-05-23T03:30:26;55.10;;;19.40;;
773;SDS011;370;48.810;9.150;2023-05-23T03:32:53;53.43;;;19.10;;
773;SDS011;370;48.810;9.150;2023-05-23T03:35:19;51.00;;;18.67;;
773;SDS011;370;48.810;9.150;2023-05-23T03:37:46;49.60;;;18.07;;
773;SDS011;370;48.810;9.150;2023-05-23T03:40:13;38.00;;;16.10;;
773;SDS011;370;48.810;9.150;2023-05-23T03:42:39;50.70;;;19.13;;
773;SDS011;370;48.810;9.150;2023-05-23T03:45:08;46.97;;;17.83;;
773;SDS011;370;48.810;9.150;2023-05-23T03:47:35;48.63;;;16.57;;
773;SDS011;370;48.810;9.150;2023-05-23T03:50:02;47.43;;;17.97;;
773;SDS011;370;48.810;9.150;2023-05-23T03:52:29;39.83;;;15.53;;
773;SDS011;370;48.810;9.150;2023-05-23T03:54:55;50.50;;;18.20;;
773;SDS011;370;48.810;9.150;2023-05-23T03:57:22;38.53;;;15.67;;
773;SDS011;370;48.810;9.150;2023-05-23T03:59:49;47.17;;;17.87;;
773;SDS011;370;48.810;9.150;2023-05-23T04:02:17;52.80;;;19.90;;
773;SDS011;370;48.810;9.150;2023-05-23T04:04:43;51.10;;;20.10;;
773;SDS011;370;48.810;9.150;2023-05-23T04:07:10;51.30;;;17.93;;
773;SDS011;370;48.810;9.150;2023-05-23T04:09:38;42.33;;;17.90;;
773;SDS011;370;48.810;9.150;2023-05-23T04:12:05;43.37;;;17.03;;
773;SDS011;370;48.810;9.150;2023-05-23T04:14:33;44.83;;;18.87;;
773;SDS011;370;48.810;9.150;2023-05-23T04:17:00;40.93;;;15.17;;
773;SDS011;370;48.810;9.150;2023-05-23T04:19:28;39.80;;;16.87;;
773;SDS011;370;48.810;9.150;2023-05-23T04:21:54;42.40;;;16.47;;
773;SDS011;370;48.810;9.150;2023-05-23T04:24:21;40.23;;;16.47;;
773;SDS011;370;48.810;9.150;2023-05-23T04:26:48;50.70;;;18.37;;
773;SDS011;370;48.810;9.150;2023-05-23T04:29:14;55.53;;;19.03;;
773;SDS011;370;48.810;9.150;2023-05-23T04:31:41;50.20;;;16.23;;
773;SDS011;370;48.810;9.150;2023-05-23T04:34:09;48.90;;;17.83;;
773;SDS011;370;48.810;9.150;2023-05-23T04:36:37;55.27;;;17.97;;
773;SDS011;370;48.810;9.150;2023-05-23T04:39:04;50.70;;;17.97;;
773;SDS011;370;48.810;9.150;2023-05-23T04:41:31;40.27;;;15.07;;
773;SDS011;370;48.810;9.150;2023-05-23T04:43:57;52.53;;;17.87;;
773;SDS011;370;48.810;9.150;2023-05-23T04:46:24;32.97;;;14.20;;
773;SDS011;370;48.810;9.150;2023-05-23T04:48:51;45.33;;;16.80;;
773;SDS011;370;48.810;9.150;2023-05-23T04:51:18;35.77;;;16.97;;
773;SDS011;370;48.810;9.150;2023-05-23T04:53:47;46.23;;;16.80;;
773;SDS011;370;48.810;9.150;2023-05-23T04:56:14;46.67;;;18.23;;
773;SDS011;370;48.810;9.150;2023-05-23T04:58:41;45.53;;;18.10;;
773;SDS011;370;48.810;9.150;2023-05-23T05:01:09;48.17;;;18.77;;
773;SDS011;370;48.810;9.150;2023-05-23T05:03:36;44.27;;;15.80;;
773;SDS011;370;48.810;9.150;2023-05-23T05:06:03;42.07;;;17.43;;
773;SDS011;370;48.810;9.150;2023-05-23T05:08:30;39.30;;;15.40;;
773;SDS011;370;48.810;9.150;2023-05-23T05:10:58;40.37;;;17.17;;
773;SDS011;370;48.810;9.150;2023-05-23T05:13:25;42.47;;;17.67;;
773;SDS011;370;48.810;9.150;2023-05-23T05:15:51;40.03;;;17.03;;
773;SDS011;370;48.810;9.150;2023-05-23T05:18:18;36.13;;;15.77;;
773;SDS011;370;48.810;9.150;2023-05-23T05:20:45;39.47;;;16.43;;
773;SDS011;370;48.810;9.150;2023-05-23T05:23:12;49.97;;;18.37;;
773;SDS011;370;48.810;9.150;2023-05-23T05:25:38;49.67;;;16.17;;
773;SDS011;370;48.810;9.150;2023-05-23T05:28:07;42.43;;;14.17;;
773;SDS011;370;48.810;9.150;2023-05-23T05:30:33;43.90;;;17.53;;
773;SDS011;370;48.810;9.150;2023-05-23T05:33:00;40.23;;;15.97;;
773;SDS011;370;48.810;9.150;2023-05-23T05:35:30;45.10;;;16.80;;
773;SDS011;370;48.810;9.150;2023-05-23T05:37:57;38.93;;;16.03;;
773;SDS011;370;48.810;9.150;2023-05-23T05:40:23;44.90;;;18.20;;
773;SDS011;370;48.810;9.150;2023-05-23T05:42:50;47.10;;;18.03;;
773;SDS011;370;48.810;9.150;2023-05-23T05:45:18;38.87;;;17.93;;
773;SDS011;370;48.810;9.150;2023-05-23T05:47:45;43.53;;;17.07;;
773;SDS011;370;48.810;9.150;2023-05-23T05:50:12;46.83;;;17.27;;
773;SDS011;370;48.810;9.150;2023-05-23T05:52:39;43.20;;;18.17;;
773;SDS011;370;48.810;9.150;2023-05-23T05:55:07;47.73;;;18.60;;
773;SDS011;370;48.810;9.150;2023-05-23T05:57:35;44.73;;;19.00;;
773;SDS011;370;48.810;9.150;2023-05-23T06:00:03;52.53;;;19.53;;
773;SDS011;370;48.810;9.150;2023-05-23T06:02:37;38.70;;;16.80;;
773;SDS011;370;48.810;9.150;2023-05-23T06:05:05;46.23;;;18.50;;
773;SDS011;370;48.810;9.150;2023-05-23T06:07:33;47.47;;;19.30;;
773;SDS011;370;48.810;9.150;2023-05-23T06:10:00;40.57;;;17.00;;
773;SDS011;370;48.810;9.150;2023-05-23T06:12:26;45.63;;;19.13;;
773;SDS011;370;48.810;9.150;2023-05-23T06:14:53;44.03;;;19.47;;
773;SDS011;370;48.810;9.150;2023-05-23T06:17:20;44.27;;;18.67;;
773;SDS011;370;48.810;9.150;2023-05-23T06:19:48;57.07;;;19.90;;
773;SDS011;370;48.810;9.150;2023-05-23T06:22:15;51.70;;;19.30;;
773;SDS011;370;48.810;9.150;2023-05-23T06:24:41;53.03;;;18.83;;
773;SDS011;370;48.810;9.150;2023-05-23T06:27:08;46.00;;;18.10;;
773;SDS011;370;48.810;9.150;2023-05-23T06:29:35;51.03;;;19.20;;
773;SDS011;370;48.810;9.150;2023-05-23T06:32:01;46.67;;;18.50;;
773;SDS011;370;48.810;9.150;2023-05-23T06:34:28;42.60;;;18.27;;
773;SDS011;370;48.810;9.150;2023-05-23T06:36:56;43.20;;;18.80;;
773;SDS011;370;48.810;9.150;2023-05-23T06:39:23;43.57;;;19.23;;
773;SDS011;370;48.810;9.150;2023-05-23T06:41:50;39.70;;;16.27;;
773;SDS011;370;48.810;9.150;2023-05-23T06:44:17;49.20;;;18.70;;
773;SDS011;370;48.810;9.150;2023-05-23T06:46:44;42.47;;;18.43;;
773;SDS011;370;48.810;9.150;2023-05-23T06:49:11;45.57;;;16.90;;
773;SDS011;370;48.810;9.150;2023-05-23T06:51:38;36.90;;;16.80;;
773;SDS011;370;48.810;9.150;2023-05-23T06:54:06;39.77;;;16.50;;
773;SDS011;370;48.810;9.150;2023-05-23T06:56:32;34.00;;;15.13;;
773;SDS011;370;48.810;9.150;2023-05-23T06:58:59;35.30;;;15.33;;
773;SDS011;370;48.810;9.150;2023-05-23T07:01:26;34.27;;;15.90;;
773;SDS011;370;48.810;9.150;2023-05-23T07:03:53;46.07;;;17.90;;
773;SDS011;370;48.810;9.150;2023-05-23T07:06:19;47.67;;;18.20;;
773;SDS011;370;48.810;9.150;2023-05-23T07:08:46;39.60;;;15.20;;
773;SDS011;370;48.810;9.150;2023-05-23T07:11:14;44.37;;;17.13;;
773;SDS011;370;48.810;9.150;2023-05-23T07:13:41;38.33;;;14.17;;
773;SDS011;370;48.810;9.150;2023-05-23T07:16:08;40.50;;;15.17;;
773;SDS011;370;48.810;9.150;2023-05-23T07:18:35;35.93;;;14.57;;
773;SDS011;370;48.810;9.150;2023-05-23T07:21:02;30.20;;;13.37;;
773;SDS011;370;48.810;9.150;2023-05-23T07:23:31;37.30;;;13.63;;
773;SDS011;370;48.810;9.150;2023-05-23T07:25:58;37.00;;;12.90;;
773;SDS011;370;48.810;9.150;2023-05-23T07:28:27;31.77;;;13.57;;
773;SDS011;370;48.810;9.150;2023-05-23T07:34:16;28.67;;;12.97;;
773;SDS011;370;48.810;9.150;2023-05-23T07:36:43;30.40;;;13.37;;
773;SDS011;370;48.810;9.150;2023-05-23T07:39:10;28.50;;;12.57;;
773;SDS011;370;48.810;9.150;2023-05-23T07:41:37;28.77;;;13.10;;
773;SDS011;370;48.810;9.150;2023-05-23T07:44:05;35.77;;;14.67;;
773;SDS011;370;48.810;9.150;2023-05-23T07:46:32;33.90;;;12.90;;
773;SDS011;370;48.810;9.150;2023-05-23T07:48:58;32.63;;;14.50;;
773;SDS011;370;48.810;9.150;2023-05-23T07:51:25;29.03;;;12.90;;
773;SDS011;370;48.810;9.150;2023-05-23T07:53:52;32.77;;;14.23;;
773;SDS011;370;48.810;9.150;2023-05-23T07:56:19;32.23;;;12.10;;
773;SDS011;370;48.810;9.150;2023-05-23T07:58:46;35.43;;;11.20;;
773;SDS011;370;48.810;9.150;2023-05-23T08:01:14;27.27;;;12.07;;
773;SDS011;370;48.810;9.150;2023-05-23T08:03:42;27.43;;;11.53;;
773;SDS011;370;48.810;9.150;2023-05-23T08:06:09;19.73;;;11.40;;
773;SDS011;370;48.810;9.150;2023-05-23T08:08:36;26.43;;;10.90;;
773;SDS011;370;48.810;9.150;2023-05-23T08:11:03;26.63;;;10.83;;
773;SDS011;370;48.810;9.150;2023-05-23T08:13:31;25.03;;;11.10;;
773;SDS011;370;48.810;9.150;2023-05-23T08:15:59;25.97;;;12.20;;
773;SDS011;370;48.810;9.150;2023-05-23T08:18:30;23.73;;;10.40;;
773;SDS011;370;48.810;9.150;2023-05-23T08:20:57;26.07;;;11.00;;
773;SDS011;370;48.810;9.150;2023-05-23T08:23:27;22.77;;;10.40;;
773;SDS011;370;48.810;9.150;2023-05-23T08:25:56;26.13;;;10.80;;
773;SDS011;370;48.810;9.150;2023-05-23T08:28:24;23.07;;;11.07;;
773;SDS011;370;48.810;9.150;2023-05-23T08:30:52;25.13;;;9.60;;
773;SDS011;370;48.810;9.150;2023-05-23T08:33:21;25.33;;;10.60;;
773;SDS011;370;48.810;9.150;2023-05-23T08:35:52;23.53;;;10.37;;
773;SDS011;370;48.810;9.150;2023-05-23T08:38:20;25.00;;;10.70;;
773;SDS011;370;48.810;9.150;2023-05-23T08:40:48;19.70;;;8.40;;
773;SDS011;370;48.810;9.150;2023-05-23T08:43:16;25.93;;;9.67;;
773;SDS011;370;48.810;9.150;2023-05-23T08:45:43;21.17;;;9.77;;
773;SDS011;370;48.810;9.150;2023-05-23T08:48:11;20.17;;;9.30;;
773;SDS011;370;48.810;9.150;2023-05-23T08:50:41;18.10;;;9.40;;
773;SDS011;370;48.810;9.150;2023-05-23T08:53:14;21.33;;;9.50;;
773;SDS011;370;48.810;9.150;2023-05-23T08:55:44;20.83;;;9.63;;
773;SDS011;370;48.810;9.150;2023-05-23T08:58:12;21.70;;;10.20;;
773;SDS011;370;48.810;9.150;2023-05-23T09:00:39;20.43;;;9.53;;
773;SDS011;370;48.810;9.150;2023-05-23T09:03:08;25.63;;;9.00;;
773;SDS011;370;48.810;9.150;2023-05-23T09:05:35;24.70;;;11.07;;
773;SDS011;370;48.810;9.150;2023-05-23T09:08:02;21.30;;;9.20;;
773;SDS011;370;48.810;9.150;2023-05-23T09:10:30;24.77;;;9.57;;
773;SDS011;370;48.810;9.150;2023-05-23T09:12:57;23.37;;;9.20;;
773;SDS011;370;48.810;9.150;2023-05-23T09:15:25;19.27;;;9.17;;
773;SDS011;370;48.810;9.150;2023-05-23T09:17:57;19.43;;;9.93;;
773;SDS011;370;48.810;9.150;2023-05-23T09:20:25;21.30;;;9.17;;
773;SDS011;370;48.810;9.150;2023-05-23T09:22:55;19.93;;;8.97;;
773;SDS011;370;48.810;9.150;2023-05-23T09:28:49;17.00;;;8.60;;
773;SDS011;370;48.810;9.150;2023-05-23T09:31:16;19.37;;;9.73;;
773;SDS011;370;48.810;9.150;2023-05-23T09:33:44;18.47;;;8.80;;
773;SDS011;370;48.810;9.150;2023-05-23T09:36:12;14.80;;;7.10;;
773;SDS011;370;48.810;9.150;2023-05-23T09:38:39;32.27;;;8.40;;
773;SDS011;370;48.810;9.150;2023-05-23T09:41:06;21.10;;;8.80;;
773;SDS011;370;48.810;9.150;2023-05-23T09:43:36;16.33;;;7.27;;
773;SDS011;370;48.810;9.150;2023-05-23T09:46:08;15.27;;;7.93;;
773;SDS011;370;48.810;9.150;2023-05-23T09:48:35;13.13;;;6.77;;
773;SDS011;370;48.810;9.150;2023-05-23T09:51:03;12.80;;;7.40;;
773;SDS011;370;48.810;9.150;2023-05-23T09:53:30;30.07;;;8.87;;
773;SDS011;370;48.810;9.150;2023-05-23T09:55:57;45.97;;;12.27;;
773;SDS011;370;48.810;9.150;2023-05-23T09:58:25;13.70;;;7.23;;
773;SDS011;370;48.810;9.150;2023-05-23T10:00:54;17.37;;;6.57;;
773;SDS011;370;48.810;9.150;2023-05-23T10:03:30;21.00;;;8.10;;
773;SDS011;370;48.810;9.150;2023-05-23T10:06:03;17.80;;;7.67;;
773;SDS011;370;48.810;9.150;2023-05-23T10:08:38;15.13;;;6.23;;
773;SDS011;370;48.810;9.150;2023-05-23T10:14:16;14.10;;;6.20;;
773;SDS011;370;48.810;9.150;2023-05-23T10:16:48;10.97;;;5.70;;
773;SDS011;370;48.810;9.150;2023-05-23T10:19:24;15.30;;;7.07;;
773;SDS011;370;48.810;9.150;2023-05-23T10:22:00;13.50;;;6.10;;
773;SDS011;370;48.810;9.150;2023-05-23T10:24:30;15.53;;;6.97;;
773;SDS011;370;48.810;9.150;2023-05-23T10:27:00;8.70;;;5.43;;
773;SDS011;370;48.810;9.150;2023-05-23T10:29:29;10.93;;;5.33;;
773;SDS011;370;48.810;9.150;2023-05-23T10:32:00;16.17;;;5.60;;
773;SDS011;370;48.810;9.150;2023-05-23T10:34:57;12.87;;;6.10;;
773;SDS011;370;48.810;9.150;2023-05-23T10:37:31;10.20;;;5.30;;
773;SDS011;370;48.810;9.150;2023-05-23T10:40:04;8.50;;;5.40;;
773;SDS011;370;48.810;9.150;2023-05-23T10:42:41;13.50;;;6.00;;
773;SDS011;370;48.810;9.150;2023-05-23T10:55:33;12.60;;;5.83;;
773;SDS011;370;48.810;9.150;2023-05-23T10:58:20;9.73;;;5.30;;
773;SDS011;370;48.810;9.150;2023-05-23T11:00:51;9.47;;;4.87;;
773;SDS011;370;48.810;9.150;2023-05-23T11:03:28;13.57;;;6.17;;
773;SDS011;370;48.810;9.150;2023-05-23T11:06:02;12.43;;;5.93;;
773;SDS011;370;48.810;9.150;2023-05-23T11:08:37;11.13;;;5.33;;
773;SDS011;370;48.810;9.150;2023-05-23T11:11:07;7.10;;;5.03;;
773;SDS011;370;48.810;9.150;2023-05-23T11:13:54;6.77;;;4.80;;
773;SDS011;370;48.810;9.150;2023-05-23T11:16:27;7.73;;;5.13;;
773;SDS011;370;48.810;9.150;2023-05-23T11:21:49;6.63;;;4.83;;
773;SDS011;370;48.810;9.150;2023-05-23T11:24:18;8.50;;;4.90;;
773;SDS011;370;48.810;9.150;2023-05-23T11:26:51;13.57;;;5.20;;
773;SDS011;370;48.810;9.150;2023-05-23T11:29:21;10.47;;;5.77;;
773;SDS011;370;48.810;9.150;2023-05-23T11:31:48;10.37;;;5.67;;
773;SDS011;370;48.810;9.150;2023-05-23T11:34:15;9.53;;;5.20;;
773;SDS011;370;48.810;9.150;2023-05-23T11:36:43;13.43;;;6.40;;
773;SDS011;370;48.810;9.150;2023-05-23T11:39:11;8.00;;;5.60;;
773;SDS011;370;48.810;9.150;2023-05-23T11:41:40;14.23;;;5.37;;
773;SDS011;370;48.810;9.150;2023-05-23T11:44:11;9.50;;;6.20;;
773;SDS011;370;48.810;9.150;2023-05-23T11:46:38;14.33;;;6.17;;
773;SDS011;370;48.810;9.150;2023-05-23T11:49:11;10.30;;;6.00;;
773;SDS011;370;48.810;9.150;2023-05-23T11:51:38;10.90;;;5.50;;
773;SDS011;370;48.810;9.150;2023-05-23T11:54:05;10.53;;;5.27;;
773;SDS011;370;48.810;9.150;2023-05-23T11:56:37;10.30;;;5.87;;
773;SDS011;370;48.810;9.150;2023-05-23T11:59:04;8.07;;;5.50;;
773;SDS011;370;48.810;9.150;2023-05-23T12:01:35;10.63;;;6.00;;
773;SDS011;370;48.810;9.150;2023-05-23T12:04:07;10.83;;;5.23;;
773;SDS011;370;48.810;9.150;2023-05-23T12:06:36;8.10;;;5.70;;
773;SDS011;370;48.810;9.150;2023-05-23T12:09:04;10.33;;;5.33;;
773;SDS011;370;48.810;9.150;2023-05-23T12:11:31;8.40;;;5.33;;
773;SDS011;370;48.810;9.150;2023-05-23T12:13:58;9.57;;;4.77;;
773;SDS011;370;48.810;9.150;2023-05-23T12:16:26;14.53;;;5.20;;
773;SDS011;370;48.810;9.150;2023-05-23T12:18:56;8.70;;;5.17;;
773;SDS011;370;48.810;9.150;2023-05-23T12:21:24;4.27;;;4.00;;
773;SDS011;370;48.810;9.150;2023-05-23T12:23:51;11.43;;;5.43;;
773;SDS011;370;48.810;9.150;2023-05-23T12:26:18;9.60;;;4.50;;
773;SDS011;370;48.810;9.150;2023-05-23T12:28:46;6.93;;;4.90;;
773;SDS011;370;48.810;9.150;2023-05-23T12:31:15;6.83;;;4.80;;
773;SDS011;370;48.810;9.150;2023-05-23T12:33:43;4.50;;;4.20;;
773;SDS011;370;48.810;9.150;2023-05-23T12:36:13;10.20;;;5.07;;
773;SDS011;370;48.810;9.150;2023-05-23T12:38:40;10.80;;;5.27;;
773;SDS011;370;48.810;9.150;2023-05-23T12:41:10;12.03;;;4.17;;
773;SDS011;370;48.810;9.150;2023-05-23T12:43:38;8.20;;;4.70;;
773;SDS011;370;48.810;9.150;2023-05-23T12:46:05;8.47;;;4.13;;
773;SDS011;370;48.810;9.150;2023-05-23T12:48:31;5.73;;;3.87;;
773;SDS011;370;48.810;9.150;2023-05-23T12:50:58;5.73;;;4.03;;
773;SDS011;370;48.810;9.150;2023-05-23T12:53:28;7.03;;;4.33;;
773;SDS011;370;48.810;9.150;2023-05-23T12:55:55;5.20;;;4.23;;
773;SDS011;370;48.810;9.150;2023-05-23T12:58:22;7.00;;;5.17;;
773;SDS011;370;48.810;9.150;2023-05-23T13:00:49;6.03;;;4.50;;
773;SDS011;370;48.810;9.150;2023-05-23T13:03:16;4.70;;;4.20;;
773;SDS011;370;48.810;9.150;2023-05-23T13:05:43;4.53;;;3.63;;
773;SDS011;370;48.810;9.150;2023-05-23T13:08:09;4.60;;;3.83;;
773;SDS011;370;48.810;9.150;2023-05-23T13:10:38;6.00;;;4.60;;
773;SDS011;370;48.810;9.150;2023-05-23T13:13:05;4.93;;;4.07;;
773;SDS011;370;48.810;9.150;2023-05-23T13:15:32;8.50;;;4.30;;
773;SDS011;370;48.810;9.150;2023-05-23T13:17:59;6.50;;;4.13;;
773;SDS011;370;48.810;9.150;2023-05-23T13:20:26;5.87;;;4.30;;
773;SDS011;370;48.810;9.150;2023-05-23T13:22:54;5.20;;;3.87;;
773;SDS011;370;48.810;9.150;2023-05-23T13:25:21;7.20;;;4.20;;
773;SDS011;370;48.810;9.150;2023-05-23T13:27:49;6.63;;;3.70;;
773;SDS011;370;48.810;9.150;2023-05-23T13:30:17;4.33;;;3.70;;
773;SDS011;370;48.810;9.150;2023-05-23T13:32:44;11.00;;;4.00;;
773;SDS011;370;48.810;9.150;2023-05-23T13:35:11;3.63;;;3.33;;
773;SDS011;370;48.810;9.150;2023-05-23T13:37:38;10.17;;;4.07;;
773;SDS011;370;48.810;9.150;2023-05-23T13:40:05;3.50;;;2.70;;
773;SDS011;370;48.810;9.150;2023-05-23T13:42:33;6.60;;;4.00;;
773;SDS011;370;48.810;9.150;2023-05-23T13:45:01;3.47;;;3.00;;
773;SDS011;370;48.810;9.150;2023-05-23T13:47:28;4.63;;;3.30;;
773;SDS011;370;48.810;9.150;2023-05-23T13:49:55;4.60;;;2.90;;
773;SDS011;370;48.810;9.150;2023-05-23T13:52:22;4.60;;;3.30;;
773;SDS011;370;48.810;9.150;2023-05-23T13:54:49;6.07;;;3.00;;
773;SDS011;370;48.810;9.150;2023-05-23T13:57:16;12.43;;;3.40;;
773;SDS011;370;48.810;9.150;2023-05-23T13:59:43;5.27;;;3.17;;
773;SDS011;370;48.810;9.150;2023-05-23T14:02:11;5.00;;;3.10;;
773;SDS011;370;48.810;9.150;2023-05-23T14:04:37;3.87;;;3.07;;
773;SDS011;370;48.810;9.150;2023-05-23T14:07:04;4.13;;;3.10;;
773;SDS011;370;48.810;9.150;2023-05-23T14:09:31;3.23;;;3.00;;
773;SDS011;370;48.810;9.150;2023-05-23T14:11:58;3.47;;;2.87;;
773;SDS011;370;48.810;9.150;2023-05-23T14:21:10;3.27;;;2.83;;
773;SDS011;370;48.810;9.150;2023-05-23T14:23:37;9.00;;;4.00;;
773;SDS011;370;48.810;9.150;2023-05-23T14:26:04;9.67;;;3.53;;
773;SDS011;370;48.810;9.150;2023-05-23T14:28:31;3.80;;;3.20;;
773;SDS011;370;48.810;9.150;2023-05-23T14:30:57;4.83;;;3.13;;
773;SDS011;370;48.810;9.150;2023-05-23T14:33:24;3.00;;;2.50;;
773;SDS011;370;48.810;9.150;2023-05-23T14:35:51;3.63;;;3.03;;
773;SDS011;370;48.810;9.150;2023-05-23T14:38:19;10.03;;;4.13;;
773;SDS011;370;48.810;9.150;2023-05-23T14:44:00;4.90;;;3.20;;
773;SDS011;370;48.810;9.150;2023-05-23T14:46:27;7.27;;;3.43;;
773;SDS011;370;48.810;9.150;2023-05-23T14:48:54;11.00;;;4.20;;
773;SDS011;370;48.810;9.150;2023-05-23T14:51:21;4.97;;;3.60;;
773;SDS011;370;48.810;9.150;2023-05-23T14:53:49;6.40;;;3.70;;
773;SDS011;370;48.810;9.150;2023-05-23T14:59:38;4.63;;;3.10;;
773;SDS011;370;48.810;9.150;2023-05-23T15:02:04;4.20;;;2.83;;
773;SDS011;370;48.810;9.150;2023-05-23T15:04:32;4.63;;;3.30;;
773;SDS011;370;48.810;9.150;2023-05-23T15:07:01;4.23;;;3.23;;
773;SDS011;370;48.810;9.150;2023-05-23T15:09:29;3.90;;;3.03;;
773;SDS011;370;48.810;9.150;2023-05-23T15:11:56;4.50;;;3.17;;
773;SDS011;370;48.810;9.150;2023-05-23T15:14:23;4.37;;;3.37;;
773;SDS011;370;48.810;9.150;2023-05-23T15:16:53;3.80;;;3.47;;
773;SDS011;370;48.810;9.150;2023-05-23T15:19:20;5.57;;;2.93;;
773;SDS011;370;48.810;9.150;2023-05-23T15:21:47;20.97;;;3.20;;
773;SDS011;370;48.810;9.150;2023-05-23T15:27:19;3.80;;;2.60;;
773;SDS011;370;48.810;9.150;2023-05-23T15:33:08;5.10;;;3.33;;
773;SDS011;370;48.810;9.150;2023-05-23T15:35:36;6.17;;;3.70;;
773;SDS011;370;48.810;9.150;2023-05-23T15:38:03;4.57;;;3.50;;
773;SDS011;370;48.810;9.150;2023-05-23T15:40:31;7.20;;;3.33;;
773;SDS011;370;48.810;9.150;2023-05-23T15:42:58;48.67;;;16.87;;
773;SDS011;370;48.810;9.150;2023-05-23T15:45:24;44.57;;;14.27;;
773;SDS011;370;48.810;9.150;2023-05-23T15:47:51;7.73;;;3.37;;
773;SDS011;370;48.810;9.150;2023-05-23T15:50:18;4.90;;;3.03;;
773;SDS011;370;48.810;9.150;2023-05-23T15:52:44;5.23;;;2.80;;
773;SDS011;370;48.810;9.150;2023-05-23T15:55:11;7.20;;;3.60;;
773;SDS011;370;48.810;9.150;2023-05-23T15:57:39;4.63;;;3.07;;
773;SDS011;370;48.810;9.150;2023-05-23T16:00:07;4.10;;;2.70;;
773;SDS011;370;48.810;9.150;2023-05-23T16:02:34;8.67;;;3.43;;
773;SDS011;370;48.810;9.150;2023-05-23T16:05:01;7.03;;;3.90;;
773;SDS011;370;48.810;9.150;2023-05-23T16:07:28;8.90;;;3.40;;
773;SDS011;370;48.810;9.150;2023-05-23T16:09:54;4.70;;;3.53;;
773;SDS011;370;48.810;9.150;2023-05-23T16:12:21;6.57;;;4.03;;